Shin Mei Maru — JG5617 — position and weather

sailwx.info

Track history (hours):
 
Tides and Currents Weather Stations Pressure Air Temp Water Temp Dewpoint Dewpoint Depression Visibility Wind Speed Wind Dir Waves Ship Positions

Shin Mei Maru

Last reported at 2018-Feb-22 22:31 UTC. Time now 2018-Feb-22 22:39 UTC.
Position N 35°33' E 139°51'.

Length 160 m; draft 6.7 m.

Type: Cargo ship. MMSI: 431100922.

Date/timePositionNaut miles runAvg speedWind from/ knotsBaromVisibWave heightAir tempDewpointWater temp
2018-Feb-22 22:31N 35°33' E 139°51'611.3
2018-Feb-22 22:00N 35°27' E 139°50'714.4
2018-Feb-22 21:30N 35°21' E 139°45'611.6
2018-Feb-22 21:00N 35°16' E 139°47'815.1
2018-Feb-22 20:31N 35°08' E 139°47'917.7
2018-Feb-22 20:00N 34°60' E 139°43'714.6
2018-Feb-22 19:30N 34°53' E 139°47'1013.2
2018-Feb-22 18:44N 34°53' E 139°60'516.3
2018-Feb-22 18:27N 34°55' E 140°05'716.4
2018-Feb-22 18:00N 34°58' E 140°13'39316.1
2018-Feb-21 17:39N 41°25' E 141°46'217.3
2018-Feb-21 17:30N 41°27' E 141°45'1517.2
2018-Feb-21 16:40N 41°41' E 141°44'14 0.6
2018-Feb-20 18:19N 41°54' E 141°37'618.3
2018-Feb-20 17:59N 41°48' E 141°39'1118.3
2018-Feb-20 17:24N 41°38' E 141°41'817.9
2018-Feb-20 16:58N 41°30' E 141°40'39216.3
2018-Feb-19 16:50N 35°03' E 140°22'617.6
2018-Feb-19 16:29N 34°60' E 140°16'1018.4
2018-Feb-19 15:58N 34°55' E 140°06'1017.9
2018-Feb-19 15:26N 34°51' E 139°55'716.1
2018-Feb-19 14:59N 34°53' E 139°47'817.4
2018-Feb-19 14:30N 35°01' E 139°43'918.4
2018-Feb-19 14:01N 35°10' E 139°46'714.2
2018-Feb-19 13:30N 35°17' E 139°45'714.7
2018-Feb-19 13:00N 35°24' E 139°43'918.4
2018-Feb-19 12:30N 35°30' E 139°51'714.7
2018-Feb-19 12:00N 35°37' E 139°46'2 2.4
2018-Feb-19 11:22N 35°38' E 139°46'0 0.0
2018-Feb-19 10:58N 35°38' E 139°46'0 0.0
2018-Feb-19 09:51N 35°38' E 139°46'0 0.0
2018-Feb-19 09:21N 35°38' E 139°46'0 0.0
2018-Feb-19 08:57N 35°38' E 139°46'0 0.0
2018-Feb-19 08:18N 35°38' E 139°46'0 0.0
2018-Feb-19 07:54N 35°38' E 139°46'0 0.0
2018-Feb-19 07:24N 35°38' E 139°46'0 0.0
2018-Feb-19 05:12N 35°38' E 139°46'0 0.0
2018-Feb-19 04:57N 35°38' E 139°46'0 0.0
2018-Feb-19 04:30N 35°38' E 139°46'0 0.0
2018-Feb-19 03:54N 35°38' E 139°46'0 0.0
2018-Feb-19 03:27N 35°38' E 139°46'0 0.0
2018-Feb-19 03:00N 35°38' E 139°46'0 0.0
2018-Feb-19 02:21N 35°38' E 139°46'0 0.0
2018-Feb-19 00:45N 35°38' E 139°46'0 0.0
2018-Feb-19 00:06N 35°38' E 139°46'0 0.0
2018-Feb-18 23:07N 35°38' E 139°46'0 0.0
2018-Feb-18 23:00N 35°38' E 139°46'5 9.4
2018-Feb-18 22:30N 35°34' E 139°49'714.4
2018-Feb-18 22:01N 35°27' E 139°49'714.3
2018-Feb-18 21:31N 35°21' E 139°45'611.6
2018-Feb-18 21:01N 35°15' E 139°47'815.7
2018-Feb-18 20:30N 35°08' E 139°47'917.7
2018-Feb-18 19:59N 34°59' E 139°43'714.0
2018-Feb-18 19:28N 34°52' E 139°47'1015.7
2018-Feb-18 18:50N 34°53' E 139°59'617.5
2018-Feb-18 18:30N 34°56' E 140°05'1117.3
2018-Feb-18 17:53N 35°01' E 140°17'37415.2
2018-Feb-17 17:12N 41°10' E 141°37'817.5
2018-Feb-17 16:45N 41°17' E 141°37'617.0
2018-Feb-17 16:24N 41°24' E 141°37'717.4
2018-Feb-17 16:00N 41°31' E 141°37'917.8
2018-Feb-17 15:30N 41°39' E 141°37'816.7
2018-Feb-17 14:59N 41°48' E 141°37'4 0.2
2018-Feb-16 18:11N 41°52' E 141°37'618.7
2018-Feb-16 17:51N 41°46' E 141°37'718.4
2018-Feb-16 17:30N 41°40' E 141°37'917.4
2018-Feb-16 16:59N 41°31' E 141°38'817.4
2018-Feb-16 16:30N 41°22' E 141°40'38516.0
2018-Feb-15 16:26N 35°03' E 140°22'716.9
2018-Feb-15 15:59N 34°59' E 140°14'816.0
2018-Feb-15 15:31N 34°55' E 140°06'1015.1
2018-Feb-15 14:49N 34°51' E 139°55'515.2
2018-Feb-15 14:29N 34°51' E 139°48'918.3
2018-Feb-15 14:00N 34°59' E 139°43'816.9
2018-Feb-15 13:31N 35°07' E 139°44'816.1
2018-Feb-15 13:00N 35°15' E 139°46'613.0
2018-Feb-15 12:30N 35°21' E 139°42'917.6
2018-Feb-15 12:00N 35°28' E 139°48'713.2
2018-Feb-15 11:30N 35°35' E 139°48'4 7.8
2018-Feb-15 11:00N 35°38' E 139°46'0 0.0
2018-Feb-15 10:30N 35°38' E 139°46'0 0.0
2018-Feb-15 10:00N 35°38' E 139°46'0 0.0
2018-Feb-15 09:24N 35°38' E 139°46'0 0.0
2018-Feb-15 09:00N 35°38' E 139°46'0 0.0
2018-Feb-15 08:30N 35°38' E 139°46'0 0.0
2018-Feb-15 08:00N 35°38' E 139°46'0 0.0
2018-Feb-15 07:24N 35°38' E 139°46'0 0.0
2018-Feb-15 06:54N 35°38' E 139°46'0 0.0
2018-Feb-15 06:21N 35°38' E 139°46'0 0.0
2018-Feb-15 05:48N 35°38' E 139°46'0 0.0
2018-Feb-15 05:24N 35°38' E 139°46'0 0.0
2018-Feb-15 04:36N 35°38' E 139°46'0 0.0
2018-Feb-15 04:18N 35°38' E 139°46'0 0.0
2018-Feb-15 04:00N 35°38' E 139°46'0 0.0
2018-Feb-15 03:27N 35°38' E 139°46'0 0.0
2018-Feb-15 03:00N 35°38' E 139°46'0 0.6
2018-Feb-15 02:31N 35°38' E 139°46'815.7
2018-Feb-15 02:00N 35°32' E 139°52'917.3
2018-Feb-15 01:31N 35°24' E 139°46'612.6
2018-Feb-15 01:00N 35°18' E 139°44'612.0
2018-Feb-15 00:30N 35°13' E 139°47'917.0
2018-Feb-15 00:00N 35°04' E 139°44'917.5
2018-Feb-14 23:30N 34°59' E 139°35'1119.6
2018-Feb-14 22:57N 34°53' E 139°24'818.9
2018-Feb-14 22:30N 34°48' E 139°16'918.9
2018-Feb-14 22:00N 34°41' E 139°08'918.3
2018-Feb-14 21:30N 34°34' E 139°01'1018.1
2018-Feb-14 20:58N 34°29' E 138°51'1018.6
2018-Feb-14 20:27N 34°25' E 138°41'918.5
2018-Feb-14 19:58N 34°22' E 138°30'817.7
2018-Feb-14 19:30N 34°19' E 138°21'9416.8
2018-Feb-14 13:54N 33°40' E 136°38'6215.8
2018-Feb-14 09:58N 33°31' E 135°24'917.6
2018-Feb-14 09:28N 33°36' E 135°16'817.7
2018-Feb-14 09:00N 33°43' E 135°09'918.0
2018-Feb-14 08:30N 33°50' E 135°03'612.8
2018-Feb-14 08:00N 33°56' E 135°02'0 0.5
2018-Feb-14 07:30N 33°56' E 135°03'0 0.1
2018-Feb-14 07:00N 33°56' E 135°03'0 0.1
2018-Feb-14 06:30N 33°56' E 135°03'0 0.2
2018-Feb-14 06:00N 33°56' E 135°02'0 0.0
2018-Feb-14 05:30N 33°56' E 135°02'0 0.2
2018-Feb-14 05:00N 33°56' E 135°02'0 0.1
2018-Feb-14 04:30N 33°56' E 135°02'0 0.0
2018-Feb-14 04:01N 33°56' E 135°02'1 2.2
2018-Feb-14 03:31N 33°56' E 135°01'2 4.9
2018-Feb-14 03:00N 33°58' E 134°59'3 6.7
2018-Feb-14 02:30N 33°57' E 135°03'1 1.3
2018-Feb-14 02:00N 33°57' E 135°04'  
Track history (hours):
 
Tides and Currents Weather Stations Pressure Air Temp Water Temp Dewpoint Dewpoint Depression Visibility Wind Speed Wind Dir Waves Ship Positions

Shin Mei Maru

Last reported at 2018-Feb-22 22:31 UTC. Time now 2018-Feb-22 22:39 UTC.
Position N 35°33' E 139°51'.

Length 160 m; draft 6.7 m.

Type: Cargo ship. MMSI: 431100922.

Date/timePositionNaut miles runAvg speedWind from/ knotsBaromVisibWave heightAir tempDewpointWater temp
2018-Feb-22 22:31N 35°33' E 139°51'611.3
2018-Feb-22 22:00N 35°27' E 139°50'714.4
2018-Feb-22 21:30N 35°21' E 139°45'611.6
2018-Feb-22 21:00N 35°16' E 139°47'815.1
2018-Feb-22 20:31N 35°08' E 139°47'917.7
2018-Feb-22 20:00N 34°60' E 139°43'714.6
2018-Feb-22 19:30N 34°53' E 139°47'1013.2
2018-Feb-22 18:44N 34°53' E 139°60'516.3
2018-Feb-22 18:27N 34°55' E 140°05'716.4
2018-Feb-22 18:00N 34°58' E 140°13'39316.1
2018-Feb-21 17:39N 41°25' E 141°46'217.3
2018-Feb-21 17:30N 41°27' E 141°45'1517.2
2018-Feb-21 16:40N 41°41' E 141°44'14 0.6
2018-Feb-20 18:19N 41°54' E 141°37'618.3
2018-Feb-20 17:59N 41°48' E 141°39'1118.3
2018-Feb-20 17:24N 41°38' E 141°41'817.9
2018-Feb-20 16:58N 41°30' E 141°40'39216.3
2018-Feb-19 16:50N 35°03' E 140°22'617.6
2018-Feb-19 16:29N 34°60' E 140°16'1018.4
2018-Feb-19 15:58N 34°55' E 140°06'1017.9
2018-Feb-19 15:26N 34°51' E 139°55'716.1
2018-Feb-19 14:59N 34°53' E 139°47'817.4
2018-Feb-19 14:30N 35°01' E 139°43'918.4
2018-Feb-19 14:01N 35°10' E 139°46'714.2
2018-Feb-19 13:30N 35°17' E 139°45'714.7
2018-Feb-19 13:00N 35°24' E 139°43'918.4
2018-Feb-19 12:30N 35°30' E 139°51'714.7
2018-Feb-19 12:00N 35°37' E 139°46'2 2.4
2018-Feb-19 11:22N 35°38' E 139°46'0 0.0
2018-Feb-19 10:58N 35°38' E 139°46'0 0.0
2018-Feb-19 09:51N 35°38' E 139°46'0 0.0
2018-Feb-19 09:21N 35°38' E 139°46'0 0.0
2018-Feb-19 08:57N 35°38' E 139°46'0 0.0
2018-Feb-19 08:18N 35°38' E 139°46'0 0.0
2018-Feb-19 07:54N 35°38' E 139°46'0 0.0
2018-Feb-19 07:24N 35°38' E 139°46'0 0.0
2018-Feb-19 05:12N 35°38' E 139°46'0 0.0
2018-Feb-19 04:57N 35°38' E 139°46'0 0.0
2018-Feb-19 04:30N 35°38' E 139°46'0 0.0
2018-Feb-19 03:54N 35°38' E 139°46'0 0.0
2018-Feb-19 03:27N 35°38' E 139°46'0 0.0
2018-Feb-19 03:00N 35°38' E 139°46'0 0.0
2018-Feb-19 02:21N 35°38' E 139°46'0 0.0
2018-Feb-19 00:45N 35°38' E 139°46'0 0.0
2018-Feb-19 00:06N 35°38' E 139°46'0 0.0
2018-Feb-18 23:07N 35°38' E 139°46'0 0.0
2018-Feb-18 23:00N 35°38' E 139°46'5 9.4
2018-Feb-18 22:30N 35°34' E 139°49'714.4
2018-Feb-18 22:01N 35°27' E 139°49'714.3
2018-Feb-18 21:31N 35°21' E 139°45'611.6
2018-Feb-18 21:01N 35°15' E 139°47'815.7
2018-Feb-18 20:30N 35°08' E 139°47'917.7
2018-Feb-18 19:59N 34°59' E 139°43'714.0
2018-Feb-18 19:28N 34°52' E 139°47'1015.7
2018-Feb-18 18:50N 34°53' E 139°59'617.5
2018-Feb-18 18:30N 34°56' E 140°05'1117.3
2018-Feb-18 17:53N 35°01' E 140°17'37415.2
2018-Feb-17 17:12N 41°10' E 141°37'817.5
2018-Feb-17 16:45N 41°17' E 141°37'617.0
2018-Feb-17 16:24N 41°24' E 141°37'717.4
2018-Feb-17 16:00N 41°31' E 141°37'917.8
2018-Feb-17 15:30N 41°39' E 141°37'816.7
2018-Feb-17 14:59N 41°48' E 141°37'4 0.2
2018-Feb-16 18:11N 41°52' E 141°37'618.7
2018-Feb-16 17:51N 41°46' E 141°37'718.4
2018-Feb-16 17:30N 41°40' E 141°37'917.4
2018-Feb-16 16:59N 41°31' E 141°38'817.4
2018-Feb-16 16:30N 41°22' E 141°40'38516.0
2018-Feb-15 16:26N 35°03' E 140°22'716.9
2018-Feb-15 15:59N 34°59' E 140°14'816.0
2018-Feb-15 15:31N 34°55' E 140°06'1015.1
2018-Feb-15 14:49N 34°51' E 139°55'515.2
2018-Feb-15 14:29N 34°51' E 139°48'918.3
2018-Feb-15 14:00N 34°59' E 139°43'816.9
2018-Feb-15 13:31N 35°07' E 139°44'816.1
2018-Feb-15 13:00N 35°15' E 139°46'613.0
2018-Feb-15 12:30N 35°21' E 139°42'917.6
2018-Feb-15 12:00N 35°28' E 139°48'713.2
2018-Feb-15 11:30N 35°35' E 139°48'4 7.8
2018-Feb-15 11:00N 35°38' E 139°46'0 0.0
2018-Feb-15 10:30N 35°38' E 139°46'0 0.0
2018-Feb-15 10:00N 35°38' E 139°46'0 0.0
2018-Feb-15 09:24N 35°38' E 139°46'0 0.0
2018-Feb-15 09:00N 35°38' E 139°46'0 0.0
2018-Feb-15 08:30N 35°38' E 139°46'0 0.0
2018-Feb-15 08:00N 35°38' E 139°46'0 0.0
2018-Feb-15 07:24N 35°38' E 139°46'0 0.0
2018-Feb-15 06:54N 35°38' E 139°46'0 0.0
2018-Feb-15 06:21N 35°38' E 139°46'0 0.0
2018-Feb-15 05:48N 35°38' E 139°46'0 0.0
2018-Feb-15 05:24N 35°38' E 139°46'0 0.0
2018-Feb-15 04:36N 35°38' E 139°46'0 0.0
2018-Feb-15 04:18N 35°38' E 139°46'0 0.0
2018-Feb-15 04:00N 35°38' E 139°46'0 0.0
2018-Feb-15 03:27N 35°38' E 139°46'0 0.0
2018-Feb-15 03:00N 35°38' E 139°46'0 0.6
2018-Feb-15 02:31N 35°38' E 139°46'815.7
2018-Feb-15 02:00N 35°32' E 139°52'917.3
2018-Feb-15 01:31N 35°24' E 139°46'612.6
2018-Feb-15 01:00N 35°18' E 139°44'612.0
2018-Feb-15 00:30N 35°13' E 139°47'917.0
2018-Feb-15 00:00N 35°04' E 139°44'917.5
2018-Feb-14 23:30N 34°59' E 139°35'1119.6
2018-Feb-14 22:57N 34°53' E 139°24'818.9
2018-Feb-14 22:30N 34°48' E 139°16'918.9
2018-Feb-14 22:00N 34°41' E 139°08'918.3
2018-Feb-14 21:30N 34°34' E 139°01'1018.1
2018-Feb-14 20:58N 34°29' E 138°51'1018.6
2018-Feb-14 20:27N 34°25' E 138°41'918.5
2018-Feb-14 19:58N 34°22' E 138°30'817.7
2018-Feb-14 19:30N 34°19' E 138°21'9416.8
2018-Feb-14 13:54N 33°40' E 136°38'6215.8
2018-Feb-14 09:58N 33°31' E 135°24'917.6
2018-Feb-14 09:28N 33°36' E 135°16'817.7
2018-Feb-14 09:00N 33°43' E 135°09'918.0
2018-Feb-14 08:30N 33°50' E 135°03'612.8
2018-Feb-14 08:00N 33°56' E 135°02'0 0.5
2018-Feb-14 07:30N 33°56' E 135°03'0 0.1
2018-Feb-14 07:00N 33°56' E 135°03'0 0.1
2018-Feb-14 06:30N 33°56' E 135°03'0 0.2
2018-Feb-14 06:00N 33°56' E 135°02'0 0.0
2018-Feb-14 05:30N 33°56' E 135°02'0 0.2
2018-Feb-14 05:00N 33°56' E 135°02'0 0.1
2018-Feb-14 04:30N 33°56' E 135°02'0 0.0
2018-Feb-14 04:01N 33°56' E 135°02'1 2.2
2018-Feb-14 03:31N 33°56' E 135°01'2 4.9
2018-Feb-14 03:00N 33°58' E 134°59'3 6.7
2018-Feb-14 02:30N 33°57' E 135°03'1 1.3
2018-Feb-14 02:00N 33°57' E 135°04'  

Dump ship's entire track history